• Join FlightAware (Why Join?)
  • Login
  • US Flag 
05:30PM EDT


 

Airport Tracker/Info


-or-


 

Live Flight TrackerFlight Track Log ✈ N614MM ✈ 07-Jan-2014 ✈ KOPF - KTPF

Flight Track Log - Related Links

Times and Time Zones

All times are in EST time to prevent confusion due to time zone crossing. See the N614MM flight status page for this flight to view local times or setup timezone preferences in your user account.

Time Position Orientation Groundspeed Altitude Reporting Facility
EST Latitude Longitude Course Direction KTS MPH feet Rate Location/Type
03:04PM 25.9064 -80.2892 279° West 80 92 400  Level Miami Center
03:05PM 25.9083 -80.3031 279° West 105 121 800 780 Climbing Miami Center
03:06PM 25.9011 -80.3375 257° West 112 129 1,600 660 Climbing Miami Center
03:07PM 25.8981 -80.3742 265° West 122 140 2,200 600 Climbing Miami Center
03:08PM 25.9100 -80.4069 292° West 118 136 2,900 480 Climbing Miami Center
03:09PM 25.9242 -80.4167 328° Northwest 110 127 3,000 360 Climbing Miami Center
03:09PM 25.9344 -80.4331 305° West 120 138 3,300 600 Climbing Miami Center
03:10PM 25.9486 -80.4428 328° Northwest 123 142 3,600 540 Climbing Miami Center
03:10PM 25.9586 -80.4639 298° West 126 145 3,900 360 Climbing Miami Center
03:11PM 25.9711 -80.4711 333° Northwest 123 142 4,000 120 Climbing Miami Center
03:11PM 25.9914 -80.4950 313° West 145 167 4,100 60 Climbing Miami Center
03:12PM 26.0014 -80.5044 320° Northwest 147 169 4,100  Level Miami Center
03:12PM 26.0175 -80.5281 307° West 155 178 4,100  Level Miami Center
03:13PM 26.0319 -80.5378 329° Northwest 152 175 4,100  Level Miami Center
03:13PM 26.0481 -80.5614 307° West 155 178 4,100 -120 Level Miami Center
03:14PM 26.0583 -80.5708 320° Northwest 152 175 4,000  Descending Miami Center
03:15PM 26.0908 -80.6067 315° West 165 190 4,100 360 Climbing Miami Center
03:16PM 26.1150 -80.6375 311° West 153 176 4,800 480 Climbing Miami Center
03:17PM 26.1456 -80.6661 320° Northwest 142 163 5,100 480 Climbing Miami Center
03:18PM 26.1742 -80.6972 316° Northwest 142 163 5,800 660 Climbing Miami Center
03:19PM 26.2006 -80.7189 324° Northwest 142 163 6,500 600 Climbing Miami Center
03:20PM 26.2250 -80.7497 311° West 136 157 7,100 600 Climbing Miami Center
03:21PM 26.2492 -80.7783 313° West 124 143 7,700 480 Climbing Miami Center
03:22PM 26.2717 -80.8022 316° Northwest 116 133 8,100 120 Climbing Miami Center
03:23PM 26.3019 -80.8358 315° West 129 148 8,000 -60 Descending Miami Center
03:24PM 26.3261 -80.8667 311° West 142 163 8,000  Level Miami Center
03:25PM 26.3586 -80.9047 314° West 152 175 8,000  Level Miami Center
03:26PM 26.3869 -80.9358 315° West 152 175 8,000  Level Miami Center
03:27PM 26.4192 -80.9764 312° West 152 175 8,000  Level Miami Center
03:28PM 26.4497 -81.0053 320° Northwest 152 175 8,000  Level Miami Center
03:29PM 26.4842 -81.0436 315° West 157 181 8,000  Level Miami Center
03:30PM 26.5186 -81.0775 319° Northwest 165 190 8,000  Level Miami Center
03:31PM 26.5531 -81.1111 319° Northwest 160 184 8,000  Level Miami Center
03:32PM 26.5836 -81.1425 317° Northwest 160 184 8,000  Level Miami Center
03:33PM 26.6181 -81.1761 319° Northwest 160 184 8,000  Level Miami Center
03:34PM 26.6506 -81.2075 319° Northwest 160 184 8,000  Level Miami Center
03:35PM 26.6850 -81.2414 319° Northwest 160 184 8,000  Level Miami Center
03:36PM 26.7172 -81.2775 315° West 155 178 8,000  Level Miami Center
03:37PM 26.7497 -81.3089 319° Northwest 165 190 8,000  Level Miami Center
03:38PM 26.7842 -81.3453 317° Northwest 160 184 8,000  Level Miami Center
03:39PM 26.8164 -81.3789 317° Northwest 160 184 8,000  Level Miami Center
03:40PM 26.8489 -81.4106 319° Northwest 160 184 8,000  Level Miami Center
03:41PM 26.8789 -81.4489 311° West 155 178 8,000  Level Miami Center
03:42PM 26.9094 -81.4803 318° Northwest 155 178 8,000  Level Miami Center
03:43PM 26.9375 -81.5164 311° West 150 173 8,000  Level Miami Center
03:44PM 26.9675 -81.5503 315° West 150 173 8,000  Level Miami Center
03:45PM 26.9978 -81.5864 313° West 150 173 8,000  Level Miami Center
03:46PM 27.0217 -81.6200 309° West 150 173 8,000  Level Miami Center
03:47PM 27.0519 -81.6561 313° West 150 173 8,000  Level Miami Center
03:48PM 27.0819 -81.6900 315° West 150 173 8,100  Climbing Miami Center
03:49PM 27.1100 -81.7239 313° West 145 167 8,100  Level Miami Center
03:50PM 27.1381 -81.7578 313° West 145 167 8,100  Level Miami Center
03:51PM 27.1683 -81.7942 313° West 145 167 8,100  Level Miami Center
03:52PM 27.1983 -81.8281 315° West 145 167 8,100 -60 Level Miami Center
03:53PM 27.2286 -81.8619 315° West 145 167 8,000 -120 Descending Miami Center
03:54PM 27.2564 -81.8983 311° West 145 167 7,900 -300 Descending Miami Center
03:55PM 27.2886 -81.9369 313° West 145 167 7,500 -420 Descending Miami Center
03:56PM 27.3183 -81.9781 309° West 156 180 7,100 -480 Descending Miami Center
03:57PM 27.3483 -82.0167 311° West 162 186 6,600 -540 Descending Miami Center
03:58PM 27.3803 -82.0578 311° West 162 186 6,100 -300 Descending Miami Center
03:59PM 27.4144 -82.0944 316° Northwest 162 186 6,000 -60 Descending Miami Center
04:00PM 27.4464 -82.1311 314° West 167 192 6,000  Level Miami Center
04:01PM 27.4786 -82.1675 315° West 167 192 6,000 -60 Level Miami Center
04:02PM 27.5083 -82.2042 312° West 167 192 5,900 -180 Descending Miami Center
04:03PM 27.5453 -82.2269 331° Northwest 155 178 5,700 -360 Descending Miami Center
04:04PM 27.5925 -82.2456 341° North 147 169 5,200 -600 Descending Miami Center
04:05PM 27.6314 -82.2683 333° Northwest 152 175 4,500 -600 Descending Miami Center
04:05PM 27.6667 -82.2833 339° North 157 181 4,200 -420 Descending Tampa TRACON
04:06PM 27.7000 -82.3000 336° Northwest 150 173 3,800 -540 Descending Tampa TRACON
04:07PM 27.7333 -82.3333 318° Northwest 156 180 3,200 -660 Descending Tampa TRACON
04:08PM 27.7833 -82.3500 344° North 158 182 2,500 -600 Descending Tampa TRACON
04:09PM 27.8167 -82.3667 336° Northwest 156 180 2,100 -420 Descending Tampa TRACON
04:10PM 27.8667 -82.3833 344° North 149 171 1,800 -480 Descending Tampa TRACON
04:11PM 27.9000 -82.4000 336° Northwest 155 178 1,200 -600 Descending Tampa TRACON